Time;durP1;ratioP1;P1;durP2;ratioP2;P2;SDS_P1;SDS_P2;PMS_P1;PMS_P2;Temp;Humidity;BMP_temperature;BMP_pressure;BME280_temperature;BME280_humidity;BME280_pressure;Samples;Min_cycle;Max_cycle;Signal;HPM_P1;HPM_P2
2024/02/13 00:00:11;;;;;;;;;;;;;;;19.57;50.65;100522.06;2070785;28;6175;-67
2024/02/13 00:01:13;;;;;;;;;;;;;;;19.58;50.59;100521.38;2067799;28;2389;-67
2024/02/13 00:02:15;;;;;;;;;;;;;;;19.57;50.68;100531.41;2068639;28;2037;-67
2024/02/13 00:03:16;;;;;;;;;;;;;;;19.57;50.68;100528.53;2068845;28;2273;-67
2024/02/13 00:04:20;;;;;;;;;;;;;;;19.56;50.61;100527.06;2072223;28;1636;-67
2024/02/13 00:05:21;;;;;;;;;;;;;;;19.55;50.59;100516.22;2071624;28;2227;-67
2024/02/13 00:06:22;;;;;;;;;;;;;;;19.56;50.56;100535.69;2068302;28;2247;-67
2024/02/13 00:07:24;;;;;;;;;;;;;;;19.56;50.59;100538.56;2069137;28;2238;-67
2024/02/13 00:08:27;;;;;;;;;;;;;;;19.55;50.59;100534.19;2069506;28;2316;-67
2024/02/13 00:09:45;;;;;;;;;;;;;;;19.55;50.75;100537.06;2069951;28;1834;-67
2024/02/13 00:10:46;;;;;;;;;;;;;;;19.55;50.68;100545.69;2068213;28;2180;-67
2024/02/13 00:11:47;;;;;;;;;;;;;;;19.54;50.58;100538.47;2070024;28;2136;-67
2024/02/13 00:12:51;;;;;;;;;;;;;;;19.54;50.63;100543.44;2068480;28;2309;-67
2024/02/13 00:13:52;;;;;;;;;;;;;;;19.54;50.68;100540.56;2071850;28;1874;-67
2024/02/13 00:14:54;;;;;;;;;;;;;;;19.54;50.65;100549.19;2069874;28;2179;-66
2024/02/13 00:15:56;;;;;;;;;;;;;;;19.53;50.58;100542.72;2070407;28;2152;-67
2024/02/13 00:16:58;;;;;;;;;;;;;;;19.54;50.71;100555.69;2071506;28;2082;-67
2024/02/13 00:18:00;;;;;;;;;;;;;;;19.53;50.87;100554.19;2070903;28;2272;-67
2024/02/13 00:19:01;;;;;;;;;;;;;;;19.53;50.79;100548.47;2071451;28;2351;-67
2024/02/13 00:20:08;;;;;;;;;;;;;;;19.53;50.73;100559.94;2068885;28;2176;-67
2024/02/13 00:21:09;;;;;;;;;;;;;;;19.52;50.65;100558.47;2069217;28;2596;-67
2024/02/13 00:22:12;;;;;;;;;;;;;;;19.52;50.71;100552.72;2070223;28;2439;-67
2024/02/13 00:23:15;;;;;;;;;;;;;;;19.52;50.56;100552.72;2067219;28;2309;-67
2024/02/13 00:24:16;;;;;;;;;;;;;;;19.52;50.57;100554.88;2071739;28;1900;-67
2024/02/13 00:25:18;;;;;;;;;;;;;;;19.51;50.61;100553.38;2068546;28;2298;-67
2024/02/13 00:26:19;;;;;;;;;;;;;;;19.50;50.52;100567.00;2071482;28;1767;-67
2024/02/13 00:27:21;;;;;;;;;;;;;;;19.50;50.63;100558.38;2069239;28;2302;-67
2024/02/13 00:28:22;;;;;;;;;;;;;;;19.50;50.65;100555.50;2066062;28;2160;-67
2024/02/13 00:29:24;;;;;;;;;;;;;;;19.50;50.67;100560.50;2070792;28;1600;-67
2024/02/13 00:30:25;;;;;;;;;;;;;;;19.50;50.62;100551.91;2066181;28;6008;-67
2024/02/13 00:31:28;;;;;;;;;;;;;;;19.49;50.68;100564.75;2057966;28;2463;-67
2024/02/13 00:32:30;;;;;;;;;;;;;;;19.49;50.64;100559.03;2061717;28;2290;-67
2024/02/13 00:33:31;;;;;;;;;;;;;;;19.48;50.68;100558.28;2063069;28;2224;-67
2024/02/13 00:34:33;;;;;;;;;;;;;;;19.48;50.66;100569.78;2062083;28;1622;-68
2024/02/13 00:35:34;;;;;;;;;;;;;;;19.48;50.56;100569.03;2062617;28;2141;-67
2024/02/13 00:36:36;;;;;;;;;;;;;;;19.49;50.72;100571.25;2061647;28;2239;-67
2024/02/13 00:37:37;;;;;;;;;;;;;;;19.47;50.53;100574.03;2061810;28;2169;-67
2024/02/13 00:38:40;;;;;;;;;;;;;;;19.47;50.64;100574.03;2062959;28;2562;-68
2024/02/13 00:39:42;;;;;;;;;;;;;;;19.47;50.53;100574.03;2062463;28;1745;-67
2024/02/13 00:40:44;;;;;;;;;;;;;;;19.46;50.64;100575.41;2060944;28;2415;-67
2024/02/13 00:41:45;;;;;;;;;;;;;;;19.47;50.61;100579.78;2061611;28;2256;-67
2024/02/13 00:42:49;;;;;;;;;;;;;;;19.46;50.65;100581.16;2061822;28;1843;-67
2024/02/13 00:43:50;;;;;;;;;;;;;;;19.45;50.68;100565.34;2059110;28;2204;-67
2024/02/13 00:44:51;;;;;;;;;;;;;;;19.45;50.49;100576.81;2060003;28;2236;-67
2024/02/13 00:45:54;;;;;;;;;;;;;;;19.44;50.52;100587.53;2062352;28;2264;-67
2024/02/13 00:46:57;;;;;;;;;;;;;;;19.45;50.49;100579.69;2061603;28;2271;-67
2024/02/13 00:47:58;;;;;;;;;;;;;;;19.44;50.52;100581.81;2063052;28;1787;-67
2024/02/13 00:49:00;;;;;;;;;;;;;;;19.43;50.62;100586.06;2062009;28;2204;-67
2024/02/13 00:50:02;;;;;;;;;;;;;;;19.43;50.54;100588.94;2062958;28;2181;-67
2024/02/13 00:51:03;;;;;;;;;;;;;;;19.43;50.52;100582.47;2060042;28;2121;-66
2024/02/13 00:52:06;;;;;;;;;;;;;;;19.42;50.72;100587.47;2060553;28;2248;-67
2024/02/13 00:53:10;;;;;;;;;;;;;;;19.43;50.59;100588.22;2063432;28;1692;-67
2024/02/13 00:54:13;;;;;;;;;;;;;;;19.41;50.55;100594.59;2063246;28;1812;-67
2024/02/13 00:55:15;;;;;;;;;;;;;;;19.43;50.59;100603.31;2063461;28;1612;-67
2024/02/13 00:56:17;;;;;;;;;;;;;;;19.42;50.49;100595.31;2059758;28;2237;-67
2024/02/13 00:57:18;;;;;;;;;;;;;;;19.41;50.56;100599.59;2062622;28;1878;-67
2024/02/13 00:58:19;;;;;;;;;;;;;;;19.41;50.44;100603.22;2061755;28;2225;-67
2024/02/13 00:59:21;;;;;;;;;;;;;;;19.41;50.40;100605.34;2062460;28;2181;-67
2024/02/13 01:00:24;;;;;;;;;;;;;;;19.41;50.52;100602.47;2065855;28;6061;-67
2024/02/13 01:01:26;;;;;;;;;;;;;;;19.41;50.61;100602.47;2072562;28;1811;-67
2024/02/13 01:02:28;;;;;;;;;;;;;;;19.40;50.49;100604.59;2069806;28;1516;-67
2024/02/13 01:03:30;;;;;;;;;;;;;;;19.40;50.44;100603.84;2070950;28;2050;-67
2024/02/13 01:04:31;;;;;;;;;;;;;;;19.39;50.51;100611.72;2068902;28;2263;-67
2024/02/13 01:05:33;;;;;;;;;;;;;;;19.39;50.62;100608.84;2070774;28;2077;-67
2024/02/13 01:06:35;;;;;;;;;;;;;;;19.39;50.48;100620.34;2068565;28;2242;-67
2024/02/13 01:07:36;;;;;;;;;;;;;;;19.38;50.55;100609.53;2069555;28;1683;-67
2024/02/13 01:08:38;;;;;;;;;;;;;;;19.39;50.46;100613.84;2071717;28;2094;-67
2024/02/13 01:09:40;;;;;;;;;;;;;;;19.37;50.53;100611.63;2070021;28;2245;-68
2024/02/13 01:10:41;;;;;;;;;;;;;;;19.38;50.59;100606.66;2069096;28;2149;-68
2024/02/13 01:11:42;;;;;;;;;;;;;;;19.38;50.51;100610.25;2070541;28;1758;-67
2024/02/13 01:12:46;;;;;;;;;;;;;;;19.36;50.41;100610.16;2067655;28;2257;-67
2024/02/13 01:13:47;;;;;;;;;;;;;;;19.37;50.47;100617.38;2067574;28;2049;-67
2024/02/13 01:14:48;;;;;;;;;;;;;;;19.37;50.45;100610.91;2070142;28;2176;-67
2024/02/13 01:15:50;;;;;;;;;;;;;;;19.36;50.38;100615.16;2068428;28;2228;-67
2024/02/13 01:16:52;;;;;;;;;;;;;;;19.36;50.41;100621.63;2069208;28;2286;-67
2024/02/13 01:17:58;;;;;;;;;;;;;;;19.36;50.41;100620.91;2071209;28;1637;-66
2024/02/13 01:19:00;;;;;;;;;;;;;;;19.35;50.36;100616.53;2070670;28;2164;-67
2024/02/13 01:20:03;;;;;;;;;;;;;;;19.35;50.40;100616.53;2067069;28;1923;-67
2024/02/13 01:21:11;;;;;;;;;;;;;;;19.36;50.34;100618.03;2069798;28;2268;-67
2024/02/13 01:22:12;;;;;;;;;;;;;;;19.35;50.44;100625.88;2070426;28;2275;-67
2024/02/13 01:23:14;;;;;;;;;;;;;;;19.35;50.38;100625.16;2069833;28;1911;-67
2024/02/13 01:24:15;;;;;;;;;;;;;;;19.35;50.21;100628.03;2071091;28;1645;-67
2024/02/13 01:25:17;;;;;;;;;;;;;;;19.35;50.41;100630.91;2070046;28;2164;-67
2024/02/13 01:26:19;;;;;;;;;;;;;;;19.34;50.29;100624.41;2069303;28;2180;-67
2024/02/13 01:27:20;;;;;;;;;;;;;;;19.34;50.23;100629.41;2069945;28;2291;-67
2024/02/13 01:28:22;;;;;;;;;;;;;;;19.35;50.28;100636.63;2070007;28;1617;-67
2024/02/13 01:29:23;;;;;;;;;;;;;;;19.34;50.39;100632.28;2067950;28;2291;-67
2024/02/13 01:30:25;;;;;;;;;;;;;;;19.33;50.44;100627.91;2068296;28;6132;-67
2024/02/13 01:31:26;;;;;;;;;;;;;;;19.32;50.42;100635.06;2069320;28;1640;-67
2024/02/13 01:32:28;;;;;;;;;;;;;;;19.33;50.31;100633.66;2066650;28;2141;-67
2024/02/13 01:33:30;;;;;;;;;;;;;;;19.33;50.38;100636.53;2069392;28;2164;-67
2024/02/13 01:34:31;;;;;;;;;;;;;;;19.32;50.30;100638.66;2070851;28;1696;-67
2024/02/13 01:35:34;;;;;;;;;;;;;;;19.32;50.34;100650.16;2068234;28;2176;-67
2024/02/13 01:36:37;;;;;;;;;;;;;;;19.32;50.26;100637.94;2069219;28;2176;-67
2024/02/13 01:37:39;;;;;;;;;;;;;;;19.32;50.31;100643.69;2065938;28;2196;-67
2024/02/13 01:38:41;;;;;;;;;;;;;;;19.32;50.25;100643.69;2067800;28;2141;-67
2024/02/13 01:39:42;;;;;;;;;;;;;;;19.31;50.24;100639.31;2068703;28;1696;-67
2024/02/13 01:40:46;;;;;;;;;;;;;;;19.32;50.30;100643.69;2068214;28;2175;-67
2024/02/13 01:41:48;;;;;;;;;;;;;;;19.31;50.24;100642.94;2068555;28;2264;-67
2024/02/13 01:42:49;;;;;;;;;;;;;;;19.30;50.28;100640.72;2068561;28;2195;-67
2024/02/13 01:43:52;;;;;;;;;;;;;;;19.30;50.20;100652.19;2069876;28;2193;-67
2024/02/13 01:44:54;;;;;;;;;;;;;;;19.30;50.13;100649.31;2071201;28;2220;-67
2024/02/13 01:45:56;;;;;;;;;;;;;;;19.31;50.21;100656.53;2068895;28;2160;-67
2024/02/13 01:46:57;;;;;;;;;;;;;;;19.31;50.06;100650.78;2068495;28;2287;-67
2024/02/13 01:48:01;;;;;;;;;;;;;;;19.32;50.13;100655.91;2071402;28;1763;-67
2024/02/13 01:49:03;;;;;;;;;;;;;;;19.32;50.12;100649.41;2070493;28;2268;-67
2024/02/13 01:50:05;;;;;;;;;;;;;;;19.33;49.94;100656.63;2068717;28;2353;-67
2024/02/13 01:51:07;;;;;;;;;;;;;;;19.34;49.96;100652.38;2069039;28;2279;-67
2024/02/13 01:52:08;;;;;;;;;;;;;;;19.34;50.00;100653.13;2066732;28;2173;-67
2024/02/13 01:53:11;;;;;;;;;;;;;;;19.34;50.01;100658.13;2069196;28;2235;-67
2024/02/13 01:54:12;;;;;;;;;;;;;;;19.35;49.93;100665.34;2069822;28;2220;-67
2024/02/13 01:55:16;;;;;;;;;;;;;;;19.36;50.02;100661.09;2071096;28;1585;-66
2024/02/13 01:56:20;;;;;;;;;;;;;;;19.35;49.94;100654.59;2069692;28;2207;-67
2024/02/13 01:57:25;;;;;;;;;;;;;;;19.38;49.89;100652.59;2066345;28;2200;-67
2024/02/13 01:58:27;;;;;;;;;;;;;;;19.39;49.88;100662.66;2067684;28;2408;-67
2024/02/13 01:59:29;;;;;;;;;;;;;;;19.40;49.99;100664.16;2068080;28;2192;-67
2024/02/13 02:00:33;;;;;;;;;;;;;;;19.41;49.95;100657.03;2066684;28;6016;-67
2024/02/13 02:01:36;;;;;;;;;;;;;;;19.41;50.00;100671.38;2068125;28;1581;-67
2024/02/13 02:02:38;;;;;;;;;;;;;;;19.42;50.09;100670.00;2069462;28;1643;-67
2024/02/13 02:03:39;;;;;;;;;;;;;;;19.42;49.95;100664.25;2068402;28;2187;-67
2024/02/13 02:04:41;;;;;;;;;;;;;;;19.41;50.00;100665.66;2066891;28;1659;-67
2024/02/13 02:05:42;;;;;;;;;;;;;;;19.42;49.98;100675.72;2071390;28;2398;-67
2024/02/13 02:06:45;;;;;;;;;;;;;;;19.41;50.05;100675.00;2067958;28;2179;-67
2024/02/13 02:07:46;;;;;;;;;;;;;;;19.41;50.05;100662.78;2068704;28;2279;-67
2024/02/13 02:08:48;;;;;;;;;;;;;;;19.42;50.02;100670.00;2070283;28;2405;-67
2024/02/13 02:09:50;;;;;;;;;;;;;;;19.42;50.20;100672.84;2068042;28;1913;-67
2024/02/13 02:10:53;;;;;;;;;;;;;;;19.42;50.08;100678.59;2069338;28;2140;-67
2024/02/13 02:11:54;;;;;;;;;;;;;;;19.42;50.17;100676.50;2068828;28;2152;-67
2024/02/13 02:12:55;;;;;;;;;;;;;;;19.41;50.21;100677.13;2069234;28;1653;-67
2024/02/13 02:13:57;;;;;;;;;;;;;;;19.41;50.25;100674.25;2070938;28;1625;-67
2024/02/13 02:15:00;;;;;;;;;;;;;;;19.41;50.23;100680.72;2069243;28;1871;-67
2024/02/13 02:16:01;;;;;;;;;;;;;;;19.42;50.21;100681.47;2067149;28;2263;-67
2024/02/13 02:17:06;;;;;;;;;;;;;;;19.42;50.19;100687.22;2066927;28;2576;-67
2024/02/13 02:18:09;;;;;;;;;;;;;;;19.41;50.20;100683.59;2066803;28;2275;-67
2024/02/13 02:19:11;;;;;;;;;;;;;;;19.41;50.36;100685.75;2069271;28;2218;-67
2024/02/13 02:20:13;;;;;;;;;;;;;;;19.41;50.19;100691.47;2070452;28;2292;-67
2024/02/13 02:21:14;;;;;;;;;;;;;;;19.40;50.15;100684.25;2069995;28;1914;-67
2024/02/13 02:22:15;;;;;;;;;;;;;;;19.40;50.10;100690.00;2070329;28;1771;-67
2024/02/13 02:23:18;;;;;;;;;;;;;;;19.41;50.26;100691.47;2069426;28;2321;-67
2024/02/13 02:24:21;;;;;;;;;;;;;;;19.40;50.16;100695.72;2070050;28;2250;-67
2024/02/13 02:25:22;;;;;;;;;;;;;;;19.40;50.10;100690.00;2069852;28;2323;-67
2024/02/13 02:26:25;;;;;;;;;;;;;;;19.39;50.17;100695.00;2070981;28;1836;-67
2024/02/13 02:27:26;;;;;;;;;;;;;;;19.39;50.19;100697.88;2068700;28;2340;-67
2024/02/13 02:28:28;;;;;;;;;;;;;;;19.39;50.26;100711.47;2066373;28;2183;-67
2024/02/13 02:29:30;;;;;;;;;;;;;;;19.39;50.25;100700.00;2066553;28;2223;-67
2024/02/13 02:30:32;;;;;;;;;;;;;;;19.39;50.23;100700.72;2067992;28;6516;-67
2024/02/13 02:31:33;;;;;;;;;;;;;;;19.37;50.34;100706.38;2068420;28;2251;-67
2024/02/13 02:32:34;;;;;;;;;;;;;;;19.39;50.27;100702.88;2069967;28;1637;-66
2024/02/13 02:33:36;;;;;;;;;;;;;;;19.38;50.29;100705.00;2070583;28;2260;-67
2024/02/13 02:34:39;;;;;;;;;;;;;;;19.37;50.27;100703.50;2069433;28;2188;-67
2024/02/13 02:35:41;;;;;;;;;;;;;;;19.36;50.20;100707.78;2069763;28;2211;-66
2024/02/13 02:36:43;;;;;;;;;;;;;;;19.36;50.32;100707.03;2070131;28;2166;-67
2024/02/13 02:37:48;;;;;;;;;;;;;;;19.36;50.35;100707.03;2070736;28;2560;-67
2024/02/13 02:38:50;;;;;;;;;;;;;;;19.36;50.26;100709.91;2069203;28;1926;-67
2024/02/13 02:39:51;;;;;;;;;;;;;;;19.36;50.29;100712.78;2070635;28;2203;-66
2024/02/13 02:40:53;;;;;;;;;;;;;;;19.36;50.22;100718.53;2069207;28;2165;-66
2024/02/13 02:41:54;;;;;;;;;;;;;;;19.36;50.24;100718.53;2069750;28;2279;-66
2024/02/13 02:42:55;;;;;;;;;;;;;;;19.35;50.26;100717.75;2070479;28;2219;-66
2024/02/13 02:43:57;;;;;;;;;;;;;;;19.34;50.24;100710.56;2067659;28;2562;-67
2024/02/13 02:44:59;;;;;;;;;;;;;;;19.34;50.32;100706.94;2066613;28;1971;-66
2024/02/13 02:46:00;;;;;;;;;;;;;;;19.34;50.24;100718.44;2071272;28;2464;-66
2024/02/13 02:47:01;;;;;;;;;;;;;;;19.34;50.14;100718.44;2068196;28;2685;-66
2024/02/13 02:48:03;;;;;;;;;;;;;;;19.33;50.20;100725.53;2072819;28;2264;-66
2024/02/13 02:49:05;;;;;;;;;;;;;;;19.34;50.18;100721.28;2070263;28;2207;-66
2024/02/13 02:50:07;;;;;;;;;;;;;;;19.33;50.15;100725.53;2072287;28;2212;-66
2024/02/13 02:51:09;;;;;;;;;;;;;;;19.33;50.24;100732.03;2072240;28;2192;-66
2024/02/13 02:52:10;;;;;;;;;;;;;;;19.33;50.31;100737.03;2071828;28;2187;-67
2024/02/13 02:53:11;;;;;;;;;;;;;;;19.32;50.17;100736.28;2072147;28;2156;-66
2024/02/13 02:54:13;;;;;;;;;;;;;;;19.31;50.22;100734.81;2071324;28;1947;-66
2024/02/13 02:55:15;;;;;;;;;;;;;;;19.31;50.23;100743.44;2071167;28;2180;-66
2024/02/13 02:56:17;;;;;;;;;;;;;;;19.31;50.19;100734.06;2071278;28;2165;-67
2024/02/13 02:57:18;;;;;;;;;;;;;;;19.30;50.24;100744.78;2069913;28;2281;-66
2024/02/13 02:58:19;;;;;;;;;;;;;;;19.32;50.30;100752.78;2072336;28;1698;-66
2024/02/13 02:59:22;;;;;;;;;;;;;;;19.30;50.19;100744.78;2072076;28;1939;-67
2024/02/13 03:00:24;;;;;;;;;;;;;;;19.30;50.22;100746.94;2070790;28;6235;-67
2024/02/13 03:01:25;;;;;;;;;;;;;;;19.30;50.22;100753.41;2070143;28;2239;-66
2024/02/13 03:02:26;;;;;;;;;;;;;;;19.30;50.18;100746.94;2069232;28;2573;-66
2024/02/13 03:03:28;;;;;;;;;;;;;;;19.30;50.29;100761.28;2071086;28;1800;-67
2024/02/13 03:04:29;;;;;;;;;;;;;;;19.29;50.21;100756.91;2071891;28;1796;-67
2024/02/13 03:05:32;;;;;;;;;;;;;;;19.29;50.29;100754.81;2068564;28;2147;-66
2024/02/13 03:06:34;;;;;;;;;;;;;;;19.29;50.25;100759.78;2067405;28;1661;-66
2024/02/13 03:07:35;;;;;;;;;;;;;;;19.29;50.28;100754.03;2070051;28;2180;-66
2024/02/13 03:08:37;;;;;;;;;;;;;;;19.28;50.30;100761.91;2069614;28;2184;-66
2024/02/13 03:09:38;;;;;;;;;;;;;;;19.28;50.30;100764.06;2071157;28;2261;-67
2024/02/13 03:10:41;;;;;;;;;;;;;;;19.27;50.16;100763.31;2070153;28;2267;-66
2024/02/13 03:11:42;;;;;;;;;;;;;;;19.27;50.21;100769.06;2068401;28;2023;-66
2024/02/13 03:12:44;;;;;;;;;;;;;;;19.28;50.12;100764.06;2069930;28;2073;-66
2024/02/13 03:13:45;;;;;;;;;;;;;;;19.25;50.17;100766.81;2071121;28;1618;-66
2024/02/13 03:14:50;;;;;;;;;;;;;;;19.27;50.33;100768.31;2071276;28;2238;-66
2024/02/13 03:15:52;;;;;;;;;;;;;;;19.27;50.18;100771.19;2070567;28;2220;-67
2024/02/13 03:16:53;;;;;;;;;;;;;;;19.27;50.24;100768.31;2071795;28;1708;-66
2024/02/13 03:17:54;;;;;;;;;;;;;;;19.25;50.08;100772.56;2072677;28;1598;-66
2024/02/13 03:18:56;;;;;;;;;;;;;;;19.25;50.19;100772.56;2070493;28;2286;-67
2024/02/13 03:19:57;;;;;;;;;;;;;;;19.24;50.25;100773.97;2071060;28;2223;-66
2024/02/13 03:20:59;;;;;;;;;;;;;;;19.25;50.14;100784.06;2071071;28;1762;-65
2024/02/13 03:22:00;;;;;;;;;;;;;;;19.24;50.18;100782.56;2070935;28;1923;-67
2024/02/13 03:23:02;;;;;;;;;;;;;;;19.22;50.13;100773.84;2071052;28;2188;-66
2024/02/13 03:24:04;;;;;;;;;;;;;;;19.23;50.17;100786.81;2071351;28;2231;-66
2024/02/13 03:25:05;;;;;;;;;;;;;;;19.24;50.27;100779.72;2070655;28;2204;-66
2024/02/13 03:26:07;;;;;;;;;;;;;;;19.23;50.07;100781.06;2071574;28;2664;-66
2024/02/13 03:27:08;;;;;;;;;;;;;;;19.23;50.14;100781.06;2070864;28;2065;-68
2024/02/13 03:28:09;;;;;;;;;;;;;;;19.24;50.16;100794.06;2072167;28;2426;-66
2024/02/13 03:29:11;;;;;;;;;;;;;;;19.23;50.05;100800.44;2070142;28;2169;-66
2024/02/13 03:30:13;;;;;;;;;;;;;;;19.23;50.07;100797.56;2070384;28;6021;-66
2024/02/13 03:31:14;;;;;;;;;;;;;;;19.20;50.13;100788.13;2069104;28;2212;-65
2024/02/13 03:32:15;;;;;;;;;;;;;;;19.20;50.03;100788.13;2070457;28;1747;-66
2024/02/13 03:33:17;;;;;;;;;;;;;;;19.20;49.99;100788.13;2070131;28;1886;-66
2024/02/13 03:34:18;;;;;;;;;;;;;;;19.20;50.02;100802.47;2070374;28;2176;-67
2024/02/13 03:35:20;;;;;;;;;;;;;;;19.19;50.03;100798.09;2071620;28;1652;-66
2024/02/13 03:36:22;;;;;;;;;;;;;;;19.18;50.07;100805.22;2069302;28;1859;-66
2024/02/13 03:37:23;;;;;;;;;;;;;;;19.19;49.97;100797.34;2069849;28;2233;-66
2024/02/13 03:38:25;;;;;;;;;;;;;;;19.18;50.01;100802.34;2071507;28;2525;-67
2024/02/13 03:39:26;;;;;;;;;;;;;;;19.19;49.98;100803.84;2068750;28;1578;-66
2024/02/13 03:40:29;;;;;;;;;;;;;;;19.19;50.01;100803.84;2068964;28;2216;-66
2024/02/13 03:41:30;;;;;;;;;;;;;;;19.20;49.97;100816.81;2066984;28;2161;-66
2024/02/13 03:42:32;;;;;;;;;;;;;;;19.21;50.10;100811.81;2071194;28;1783;-66
2024/02/13 03:43:34;;;;;;;;;;;;;;;19.22;49.89;100816.19;2069646;28;2232;-66
2024/02/13 03:44:37;;;;;;;;;;;;;;;19.23;49.88;100809.78;2072052;28;2411;-66
2024/02/13 03:45:38;;;;;;;;;;;;;;;19.25;49.76;100817.75;2069594;28;2408;-66
2024/02/13 03:46:42;;;;;;;;;;;;;;;19.27;49.76;100817.13;2071010;28;2327;-66
2024/02/13 03:47:43;;;;;;;;;;;;;;;19.27;49.89;100820.75;2070294;28;2294;-67
2024/02/13 03:48:45;;;;;;;;;;;;;;;19.29;49.70;100829.47;2069406;28;2311;-66
2024/02/13 03:49:46;;;;;;;;;;;;;;;19.30;49.61;100830.19;2070767;28;1664;-67
2024/02/13 03:50:48;;;;;;;;;;;;;;;19.30;49.75;100818.72;2072763;28;1653;-66
2024/02/13 03:51:49;;;;;;;;;;;;;;;19.32;49.78;100830.31;2070612;28;2278;-66
2024/02/13 03:52:51;;;;;;;;;;;;;;;19.32;49.67;100833.91;2069478;28;2203;-67
2024/02/13 03:53:52;;;;;;;;;;;;;;;19.32;49.89;100827.44;2067205;28;2156;-61
2024/02/13 03:54:53;;;;;;;;;;;;;;;19.33;50.14;100834.63;2069536;28;2215;-61
2024/02/13 03:55:55;;;;;;;;;;;;;;;19.33;50.07;100832.50;2068146;28;1704;-63
2024/02/13 03:56:56;;;;;;;;;;;;;;;19.34;50.15;100839.00;2068830;28;2148;-61
2024/02/13 03:57:58;;;;;;;;;;;;;;;19.34;50.12;100842.63;2071168;28;2208;-63
2024/02/13 03:58:59;;;;;;;;;;;;;;;19.35;50.08;100831.88;2070219;28;2125;-64
2024/02/13 04:00:00;;;;;;;;;;;;;;;19.35;50.10;100846.97;2069965;28;2385;-63
2024/02/13 04:01:02;;;;;;;;;;;;;;;19.35;50.39;100834.75;2068616;28;7485;-63
2024/02/13 04:02:03;;;;;;;;;;;;;;;19.35;50.32;100840.50;2070438;28;1977;-63
2024/02/13 04:03:05;;;;;;;;;;;;;;;19.35;50.18;100846.22;2066988;28;1743;-63
2024/02/13 04:04:06;;;;;;;;;;;;;;;19.36;50.16;100856.34;2069437;28;2033;-62
2024/02/13 04:05:08;;;;;;;;;;;;;;;19.35;50.37;100851.97;2069060;28;2207;-63
2024/02/13 04:06:10;;;;;;;;;;;;;;;19.35;50.28;100849.84;2069256;28;2478;-63
2024/02/13 04:07:12;;;;;;;;;;;;;;;19.36;50.15;100847.72;2070310;28;2196;-63
2024/02/13 04:08:13;;;;;;;;;;;;;;;19.36;50.30;100856.34;2071367;28;1763;-63
2024/02/13 04:09:15;;;;;;;;;;;;;;;19.36;50.17;100853.47;2069843;28;1562;-63
2024/02/13 04:10:16;;;;;;;;;;;;;;;19.36;50.17;100848.47;2070346;28;1867;-61
2024/02/13 04:11:18;;;;;;;;;;;;;;;19.36;50.04;100856.34;2069606;28;2147;-63
2024/02/13 04:12:20;;;;;;;;;;;;;;;19.36;50.07;100850.59;2070301;28;1926;-63
2024/02/13 04:13:22;;;;;;;;;;;;;;;19.36;50.22;100853.47;2070215;28;2136;-63
2024/02/13 04:14:23;;;;;;;;;;;;;;;19.36;50.25;100862.09;2071222;28;2113;-63
2024/02/13 04:15:24;;;;;;;;;;;;;;;19.37;50.17;100852.09;2069657;28;2214;-63
2024/02/13 04:16:26;;;;;;;;;;;;;;;19.37;50.19;100857.81;2070967;28;1609;-63
2024/02/13 04:17:27;;;;;;;;;;;;;;;19.39;50.22;100855.06;2070397;28;2134;-64
2024/02/13 04:18:29;;;;;;;;;;;;;;;19.39;50.23;100860.81;2071816;28;2145;-63
2024/02/13 04:19:30;;;;;;;;;;;;;;;19.39;50.26;100855.78;2070583;28;1867;-63
2024/02/13 04:20:31;;;;;;;;;;;;;;;19.39;50.31;100863.66;2070947;28;2097;-63
2024/02/13 04:21:33;;;;;;;;;;;;;;;19.41;50.58;100869.53;2068018;28;2081;-63
2024/02/13 04:22:35;;;;;;;;;;;;;;;19.41;50.70;100869.53;2067965;28;1973;-63
2024/02/13 04:23:36;;;;;;;;;;;;;;;19.41;50.62;100863.78;2068995;28;1795;-64
2024/02/13 04:24:38;;;;;;;;;;;;;;;19.41;50.44;100869.53;2071223;28;2068;-63
2024/02/13 04:25:39;;;;;;;;;;;;;;;19.41;50.33;100869.53;2069409;28;2188;-63
2024/02/13 04:26:41;;;;;;;;;;;;;;;19.40;50.32;100877.41;2071143;28;1664;-63
2024/02/13 04:27:43;;;;;;;;;;;;;;;19.40;50.28;100873.75;2070748;28;1935;-63
2024/02/13 04:28:45;;;;;;;;;;;;;;;19.40;50.25;100868.03;2070897;28;2026;-63
2024/02/13 04:29:46;;;;;;;;;;;;;;;19.40;50.54;100880.28;2070103;28;2076;-63
2024/02/13 04:30:47;;;;;;;;;;;;;;;19.41;50.58;100881.00;2069923;28;6094;-63
2024/02/13 04:31:49;;;;;;;;;;;;;;;19.40;50.55;100885.25;2071008;28;1819;-64
2024/02/13 04:32:51;;;;;;;;;;;;;;;19.40;50.49;100879.50;2069973;28;1792;-63
2024/02/13 04:33:53;;;;;;;;;;;;;;;19.39;50.46;100878.75;2069195;28;2061;-63
2024/02/13 04:34:54;;;;;;;;;;;;;;;19.41;50.47;100881.00;2071886;28;2141;-63
2024/02/13 04:35:56;;;;;;;;;;;;;;;19.41;50.48;100881.00;2070140;28;1726;-63
2024/02/13 04:36:58;;;;;;;;;;;;;;;19.41;50.43;100881.00;2070157;28;2086;-63
2024/02/13 04:38:00;;;;;;;;;;;;;;;19.40;50.38;100880.28;2069473;28;2063;-63
2024/02/13 04:39:01;;;;;;;;;;;;;;;19.40;50.42;100880.28;2070188;28;1649;-63
2024/02/13 04:40:03;;;;;;;;;;;;;;;19.40;50.27;100885.25;2066043;28;1981;-64
2024/02/13 04:41:05;;;;;;;;;;;;;;;19.42;50.25;100888.22;2070354;28;1870;-63
2024/02/13 04:42:06;;;;;;;;;;;;;;;19.41;50.40;100893.22;2069462;28;2030;-63
2024/02/13 04:43:07;;;;;;;;;;;;;;;19.43;50.37;100892.59;2069607;28;2224;-63
2024/02/13 04:44:09;;;;;;;;;;;;;;;19.42;50.36;100891.09;2068968;28;1671;-63
2024/02/13 04:45:10;;;;;;;;;;;;;;;19.45;50.41;100898.44;2066347;28;2053;-63
2024/02/13 04:46:11;;;;;;;;;;;;;;;19.44;50.41;100888.31;2067236;28;2093;-63
2024/02/13 04:47:13;;;;;;;;;;;;;;;19.44;50.33;100896.94;2069342;28;1581;-63
2024/02/13 04:48:14;;;;;;;;;;;;;;;19.47;50.41;100898.56;2069796;28;2078;-63
2024/02/13 04:49:16;;;;;;;;;;;;;;;19.46;50.35;100899.91;2067174;28;2104;-63
2024/02/13 04:50:17;;;;;;;;;;;;;;;19.45;50.25;100898.44;2070406;28;1878;-63
2024/02/13 04:51:23;;;;;;;;;;;;;;;19.46;50.42;100897.06;2070314;28;2120;-63
2024/02/13 04:52:25;;;;;;;;;;;;;;;19.46;50.52;100894.19;2070822;28;2176;-63
2024/02/13 04:53:26;;;;;;;;;;;;;;;19.46;50.58;100899.91;2068385;28;1910;-63
2024/02/13 04:54:28;;;;;;;;;;;;;;;19.45;50.34;100899.19;2066213;28;2174;-63
2024/02/13 04:55:29;;;;;;;;;;;;;;;19.46;50.42;100908.53;2068135;28;2089;-63
2024/02/13 04:56:31;;;;;;;;;;;;;;;19.45;50.36;100901.31;2070676;28;2375;-63
2024/02/13 04:57:33;;;;;;;;;;;;;;;19.44;50.39;100896.94;2069714;28;2015;-63
2024/02/13 04:58:36;;;;;;;;;;;;;;;19.45;50.27;100898.44;2069105;28;2257;-63
2024/02/13 04:59:47;;;;;;;;;;;;;;;19.44;50.51;100908.44;2072036;28;1645;-63
2024/02/13 05:01:01;;;;;;;;;;;;;;;19.46;50.48;100897.06;2070760;28;6291;-63
2024/02/13 05:02:05;;;;;;;;;;;;;;;19.46;50.61;100905.66;2071089;28;2088;-63
2024/02/13 05:03:26;;;;;;;;;;;;;;;19.45;50.64;100899.19;2071182;28;2062;-64
2024/02/13 05:08:12;;;;;;;;;;;;;;;19.46;50.51;100911.41;2069531;28;2092;-63
2024/02/13 05:09:13;;;;;;;;;;;;;;;19.46;50.54;100909.28;2068765;28;1985;-63
2024/02/13 05:10:14;;;;;;;;;;;;;;;19.46;50.50;100911.41;2069720;28;1624;-63
2024/02/13 05:11:18;;;;;;;;;;;;;;;19.46;50.41;100915.03;2068748;28;1926;-63
2024/02/13 05:12:19;;;;;;;;;;;;;;;19.48;50.47;100914.38;2068041;28;2249;-63
2024/02/13 05:13:21;;;;;;;;;;;;;;;19.47;50.33;100910.03;2067933;28;2046;-63
2024/02/13 05:14:22;;;;;;;;;;;;;;;19.47;50.50;100912.91;2069209;28;2069;-63
2024/02/13 05:15:25;;;;;;;;;;;;;;;19.48;50.54;100910.78;2069957;28;1998;-63
2024/02/13 05:16:31;;;;;;;;;;;;;;;19.48;50.60;100914.38;2070483;28;2230;-63
2024/02/13 05:17:34;;;;;;;;;;;;;;;19.48;50.44;100908.66;2067927;28;2204;-63
2024/02/13 05:18:36;;;;;;;;;;;;;;;19.50;50.51;100916.63;2070012;28;1793;-64
2024/02/13 05:19:39;;;;;;;;;;;;;;;19.50;50.40;100922.38;2068140;28;2403;-64
2024/02/13 05:20:40;;;;;;;;;;;;;;;19.50;50.36;100920.25;2070243;28;2126;-65
2024/02/13 05:21:42;;;;;;;;;;;;;;;19.52;50.49;100920.34;2069584;28;2226;-65
2024/02/13 05:22:43;;;;;;;;;;;;;;;19.52;50.47;100914.59;2067934;28;2221;-66
2024/02/13 05:23:47;;;;;;;;;;;;;;;19.53;50.50;100932.56;2067823;28;2158;-64
2024/02/13 05:24:49;;;;;;;;;;;;;;;19.58;50.19;100932.13;2070613;28;2158;-66
2024/02/13 05:25:51;;;;;;;;;;;;;;;19.60;50.35;100932.22;2071293;28;1933;-67
2024/02/13 05:26:53;;;;;;;;;;;;;;;19.51;50.42;100936.06;2069069;28;1985;-65